Airfield :
LOGIN :

Register | Disclaimer

   EN    FR    IT 

 










Legend :    VFR   Marginal VFR   IFR   Intensive IFR   Very Intensive IFR
Visi :
Ceiling :
>= 8 km
>= 3000ft
5 to 8 km
1000 to 3000 ft
1500m to 5 km
500 to 1000 ft
800 to 1500m
200 to 500 ft
< 800m
< 200 ft
Symbols :   Thunderstorms  Fog  Heavy snow  Heavy precipitations  Wind > 20 kt
SIGMETs :     Misc.  Thunderstorms  Icing  Turbulence  Mountain Waves  Volcanic Ashes






- Airport Elevation : 2731 ft
- IATA code : LPY


LFHP - Le Puy Loudes

CURRENT METAR :
  • 121400Z AUTO 19005KT 140V240 9999 SCT024 BKN056 OVC130 05/00 Q1003

EXPIRED METARs :
  • 121330Z AUTO 22005KT 180V300 9999 OVC023 06/01 Q1004
  • 121300Z AUTO 23005KT 180V260 9999 BKN023 BKN034 OVC072 05/00 Q1005
  • 121230Z AUTO VRB03KT 9999 OVC024 04/00 Q1005
  • 121200Z AUTO 22007KT 180V270 9999 BKN030 OVC037 04/M01 Q1006
  • 121130Z AUTO 21005KT 170V260 9999 FEW023 OVC040 04/M01 Q1007
  • 121100Z AUTO 22005KT 190V270 9999 BKN044 OVC052 03/M01 Q1008

Expired Forecast.



MET'MAP, your aeronautical weather chart ! - Copyright ORBIFLY December 2007 - Disclaimer

ORBIFLY MET'MAP TEAM :

Programming & Development : Alexandra Zaïnal
Concept & original design : Baudouin d'Aumeries
Assistance for programming : Marc-Olivier Méhu
Technical & hardware support : Manuel Goepfert

Contact : metmap@orbifly.com




SOURCES & CREDITS :

   NOAA